createdAt,value
2018-08-22T00:02:14.427Z,64.40
2018-08-22T00:04:43.658Z,64.70
2018-08-22T00:07:12.707Z,64.70
2018-08-22T00:09:41.792Z,64.70
2018-08-22T00:12:11.869Z,64.60
2018-08-22T00:14:41.623Z,64.60
2018-08-22T00:17:10.690Z,64.40
2018-08-22T00:19:39.736Z,64.50
2018-08-22T00:22:08.816Z,64.50
2018-08-22T00:24:37.831Z,64.60
2018-08-22T00:27:06.860Z,64.50
2018-08-22T00:29:35.914Z,64.20
2018-08-22T00:32:05.245Z,64.30
2018-08-22T00:34:34.403Z,64.30
2018-08-22T00:37:03.448Z,64.50
2018-08-22T00:39:33.149Z,64.50
2018-08-22T00:42:03.292Z,64.80
2018-08-22T00:44:33.516Z,64.70
2018-08-22T00:47:02.520Z,64.80
2018-08-22T00:49:31.749Z,64.80
2018-08-22T00:52:00.761Z,65.00
2018-08-22T00:54:29.811Z,65.50
2018-08-22T00:56:58.827Z,65.70
2018-08-22T00:59:27.845Z,65.10
2018-08-22T01:01:56.857Z,65.20
2018-08-22T01:04:25.955Z,65.20
2018-08-22T01:06:54.993Z,65.30
2018-08-22T01:09:23.971Z,66.20
2018-08-22T01:11:53.087Z,65.10
2018-08-22T01:14:22.368Z,65.10
2018-08-22T01:16:51.407Z,65.20
2018-08-22T01:19:20.439Z,65.20
2018-08-22T01:21:49.520Z,65.20
2018-08-22T01:24:18.581Z,65.20
2018-08-22T01:26:47.664Z,65.10
2018-08-22T01:29:16.667Z,65.20
2018-08-22T01:31:46.068Z,65.10
2018-08-22T01:34:15.354Z,65.20
2018-08-22T01:36:44.472Z,65.70
2018-08-22T01:39:13.563Z,65.20
2018-08-22T01:41:42.713Z,65.50
2018-08-22T01:44:11.958Z,65.60
2018-08-22T01:46:41.299Z,66.00
2018-08-22T01:49:10.499Z,66.10
2018-08-22T01:51:39.483Z,67.00
2018-08-22T01:54:08.588Z,66.10
2018-08-22T01:56:37.640Z,66.20
2018-08-22T01:59:06.821Z,66.40
2018-08-22T02:01:35.896Z,66.50
2018-08-22T02:04:04.968Z,66.70
2018-08-22T02:06:34.165Z,66.80
2018-08-22T02:09:03.269Z,67.10
2018-08-22T02:11:33.328Z,67.20
2018-08-22T02:14:02.396Z,67.10
2018-08-22T02:16:31.581Z,67.10
2018-08-22T02:19:00.638Z,67.30
2018-08-22T02:21:29.654Z,67.50
2018-08-22T02:23:58.839Z,67.50
2018-08-22T02:26:27.875Z,67.40
2018-08-22T02:28:56.950Z,67.40
2018-08-22T02:31:26.118Z,67.50
2018-08-22T02:33:55.248Z,68.30
2018-08-22T02:36:24.384Z,67.50
2018-08-22T02:38:53.482Z,67.40
2018-08-22T02:41:29.395Z,67.40
2018-08-22T02:43:58.539Z,67.40
2018-08-22T02:46:28.033Z,67.40
2018-08-22T02:48:57.834Z,67.30
2018-08-22T02:51:27.149Z,67.40
2018-08-22T02:53:56.535Z,67.40
2018-08-22T02:56:25.749Z,67.50
2018-08-22T02:58:54.845Z,67.60
2018-08-22T03:01:23.990Z,67.60
2018-08-22T03:03:53.084Z,67.50
2018-08-22T03:06:22.171Z,67.80
2018-08-22T03:08:51.284Z,67.70
2018-08-22T03:11:20.311Z,67.90
2018-08-22T03:13:49.371Z,67.80
2018-08-22T03:16:18.536Z,67.90
2018-08-22T03:18:47.706Z,67.90
2018-08-22T03:21:16.967Z,68.10
2018-08-22T03:23:46.145Z,68.20
2018-08-22T03:26:15.390Z,68.40
2018-08-22T03:28:45.560Z,68.40
2018-08-22T03:31:14.690Z,68.60
2018-08-22T03:33:43.768Z,68.70
2018-08-22T03:36:12.921Z,68.70
2018-08-22T03:38:42.080Z,68.60
2018-08-22T03:41:11.233Z,68.90
2018-08-22T03:43:40.548Z,69.00
2018-08-22T03:46:09.643Z,69.10
2018-08-22T03:48:38.873Z,69.20
2018-08-22T03:51:08.069Z,69.20
2018-08-22T03:53:37.606Z,69.30
2018-08-22T03:56:07.868Z,69.50
2018-08-22T03:58:37.005Z,69.60
2018-08-22T04:01:06.182Z,69.80
2018-08-22T04:03:35.290Z,69.80
2018-08-22T04:06:04.377Z,69.90
2018-08-22T04:08:33.483Z,70.00
2018-08-22T04:11:02.726Z,70.10
2018-08-22T04:13:31.868Z,70.10
2018-08-22T04:16:01.218Z,70.20
2018-08-22T04:18:31.445Z,70.20
2018-08-22T04:21:00.661Z,70.30
2018-08-22T04:23:29.799Z,70.30
2018-08-22T04:25:58.886Z,70.30
2018-08-22T04:28:27.985Z,70.40
2018-08-22T04:30:57.174Z,70.40
2018-08-22T04:33:26.233Z,70.50
2018-08-22T04:35:55.590Z,70.70
2018-08-22T04:38:25.687Z,70.70
2018-08-22T04:40:54.898Z,70.70
2018-08-22T04:43:24.036Z,70.80
2018-08-22T04:45:53.258Z,70.70
2018-08-22T04:48:22.425Z,70.90
2018-08-22T04:50:51.528Z,70.90
2018-08-22T04:53:20.649Z,70.90
2018-08-22T04:55:50.530Z,70.90
2018-08-22T04:58:19.666Z,70.90
2018-08-22T05:00:49.809Z,70.90
2018-08-22T05:03:18.943Z,71.00
2018-08-22T05:05:48.184Z,70.90
2018-08-22T05:08:17.392Z,71.00
2018-08-22T05:10:46.512Z,70.90
2018-08-22T05:13:16.085Z,70.80
2018-08-22T05:15:46.020Z,70.60
2018-08-22T05:18:15.436Z,70.20
2018-08-22T05:20:44.627Z,69.90
2018-08-22T05:23:13.860Z,69.70
2018-08-22T05:25:43.135Z,69.50
2018-08-22T05:28:12.832Z,69.30
2018-08-22T05:30:42.120Z,69.20
2018-08-22T05:33:11.573Z,69.10
2018-08-22T05:35:41.185Z,69.10
2018-08-22T05:38:11.045Z,69.10
2018-08-22T05:40:40.484Z,69.10
2018-08-22T05:43:09.602Z,69.20
2018-08-22T05:45:38.875Z,69.10
2018-08-22T05:48:07.990Z,69.10
2018-08-22T05:50:37.899Z,69.00
2018-08-22T05:53:07.096Z,68.90
2018-08-22T05:55:36.349Z,68.70
2018-08-22T05:58:05.901Z,68.50
2018-08-22T06:00:35.212Z,68.40
2018-08-22T06:03:04.268Z,68.20
2018-08-22T06:05:33.340Z,68.00
2018-08-22T06:08:02.465Z,67.70
2018-08-22T06:10:31.599Z,67.50
2018-08-22T06:13:00.828Z,66.90
2018-08-22T06:15:29.892Z,66.90
2018-08-22T06:17:59.150Z,66.70
2018-08-22T06:20:28.668Z,66.40
2018-08-22T06:22:57.840Z,66.30
2018-08-22T06:25:27.036Z,66.00
2018-08-22T06:27:56.115Z,65.60
2018-08-22T06:30:25.267Z,65.70
2018-08-22T06:32:54.634Z,65.60
2018-08-22T06:35:23.784Z,64.60
2018-08-22T06:37:52.905Z,64.70
2018-08-22T06:40:23.462Z,64.10
2018-08-22T06:42:52.961Z,63.10
2018-08-22T06:45:22.090Z,62.70
2018-08-22T06:47:51.411Z,62.20
2018-08-22T06:50:21.309Z,61.90
2018-08-22T06:52:50.310Z,61.80
2018-08-22T06:55:19.534Z,61.40
2018-08-22T06:57:48.803Z,61.80
2018-08-22T07:00:17.932Z,60.40
2018-08-22T07:02:47.267Z,60.00
2018-08-22T07:05:16.502Z,59.40
2018-08-22T07:07:45.711Z,59.00
2018-08-22T07:10:15.130Z,58.60
2018-08-22T07:12:44.448Z,58.10
2018-08-22T07:15:13.802Z,57.40
2018-08-22T07:17:44.419Z,57.30
2018-08-22T07:20:14.037Z,56.80
2018-08-22T07:22:43.708Z,56.10
2018-08-22T07:25:13.242Z,55.70
2018-08-22T07:27:42.392Z,55.30
2018-08-22T07:30:11.774Z,54.40
2018-08-22T07:32:41.052Z,53.80
2018-08-22T07:35:11.806Z,53.10
2018-08-22T07:37:41.851Z,52.50
2018-08-22T07:40:11.629Z,51.90
2018-08-22T07:42:41.050Z,51.00
2018-08-22T07:45:10.254Z,50.80
2018-08-22T07:47:39.520Z,50.20
2018-08-22T07:50:10.379Z,49.60
2018-08-22T07:52:52.547Z,49.00
2018-08-22T07:55:23.185Z,48.70
2018-08-22T07:57:52.524Z,48.40
2018-08-22T08:00:21.685Z,48.10
2018-08-22T08:02:51.085Z,47.90
2018-08-22T08:05:20.257Z,47.30
2018-08-22T08:07:49.742Z,46.90
2018-08-22T08:10:24.457Z,46.20
2018-08-22T08:12:54.231Z,45.80
2018-08-22T08:15:23.801Z,45.90
2018-08-22T08:17:53.525Z,45.80
2018-08-22T08:20:23.467Z,45.10
2018-08-22T08:22:52.747Z,44.80
2018-08-22T08:25:22.099Z,44.40
2018-08-22T08:27:51.416Z,43.80
2018-08-22T08:30:20.714Z,43.20
2018-08-22T08:32:49.920Z,42.90
2018-08-22T08:35:19.281Z,42.80
2018-08-22T08:37:48.696Z,42.50
2018-08-22T08:40:18.787Z,41.70
2018-08-22T08:42:48.063Z,41.50
2018-08-22T08:45:17.261Z,40.70
2018-08-22T08:47:46.584Z,41.20
2018-08-22T08:50:16.110Z,40.70
2018-08-22T08:52:45.549Z,40.50
2018-08-22T08:55:14.956Z,40.20
2018-08-22T08:57:44.732Z,39.40
2018-08-22T09:00:14.295Z,39.20
2018-08-22T09:02:45.055Z,38.70
2018-08-22T09:05:14.506Z,38.60
2018-08-22T09:07:44.053Z,37.60
2018-08-22T09:10:13.530Z,37.60
2018-08-22T09:12:42.714Z,37.60
2018-08-22T09:15:12.006Z,37.40
2018-08-22T09:17:41.467Z,37.70
2018-08-22T09:20:11.257Z,37.60
2018-08-22T09:22:40.486Z,37.50
2018-08-22T09:25:09.860Z,37.60
2018-08-22T09:27:39.696Z,37.40
2018-08-22T09:30:08.993Z,36.90
2018-08-22T09:32:38.177Z,36.30
2018-08-22T09:35:07.489Z,35.80
2018-08-22T09:37:36.658Z,35.90
2018-08-22T09:40:06.156Z,35.30
2018-08-22T09:42:35.599Z,35.90
2018-08-22T09:45:05.140Z,35.60
2018-08-22T09:47:34.968Z,36.50
2018-08-22T09:50:04.315Z,35.80
2018-08-22T09:52:33.755Z,35.30
2018-08-22T09:55:04.604Z,35.10
2018-08-22T09:57:33.790Z,34.90
2018-08-22T10:00:03.508Z,35.30
2018-08-22T10:02:32.810Z,35.00
2018-08-22T10:05:02.161Z,36.00
2018-08-22T10:07:31.973Z,34.70
2018-08-22T10:10:01.393Z,34.20
2018-08-22T10:12:30.424Z,34.20
2018-08-22T10:14:59.722Z,34.50
2018-08-22T10:17:29.052Z,34.10
2018-08-22T10:19:58.388Z,34.70
2018-08-22T10:22:27.586Z,34.90
2018-08-22T10:24:56.895Z,34.70
2018-08-22T10:27:26.129Z,34.80
2018-08-22T10:29:55.397Z,34.50
2018-08-22T10:32:24.500Z,34.60
2018-08-22T10:34:53.721Z,34.20
2018-08-22T10:37:22.845Z,34.00
2018-08-22T10:39:52.279Z,34.10
2018-08-22T10:42:21.925Z,34.30
2018-08-22T10:44:51.454Z,34.50
2018-08-22T10:47:20.905Z,33.70
2018-08-22T10:49:50.177Z,33.20
2018-08-22T10:52:19.474Z,33.80
2018-08-22T10:54:48.750Z,33.30
2018-08-22T10:57:18.156Z,33.80
2018-08-22T10:59:47.713Z,34.30
2018-08-22T11:02:18.008Z,34.90
2018-08-22T11:04:47.651Z,35.10
2018-08-22T11:07:17.802Z,35.00
2018-08-22T11:09:47.457Z,34.80
2018-08-22T11:12:18.257Z,34.50
2018-08-22T11:14:47.584Z,34.60
2018-08-22T11:17:16.914Z,34.70
2018-08-22T11:19:46.117Z,34.90
2018-08-22T11:22:32.624Z,35.20
2018-08-22T11:25:18.897Z,35.50
2018-08-22T11:28:05.217Z,35.60
2018-08-22T11:30:51.490Z,36.00
2018-08-22T11:33:37.757Z,36.30
2018-08-22T11:36:05.493Z,36.00
2018-08-22T11:38:34.722Z,35.80
2018-08-22T11:41:04.300Z,36.10
2018-08-22T11:43:33.986Z,36.20
2018-08-22T11:46:03.631Z,36.00
2018-08-22T11:48:32.937Z,36.30
2018-08-22T11:51:02.441Z,36.00
2018-08-22T11:53:32.476Z,35.80
2018-08-22T11:56:01.902Z,35.60
2018-08-22T11:58:31.160Z,35.70
2018-08-22T12:01:00.996Z,35.80
2018-08-22T12:03:30.243Z,35.80
2018-08-22T12:05:59.780Z,36.00
2018-08-22T12:08:29.718Z,35.80
2018-08-22T12:10:59.161Z,35.90
2018-08-22T12:13:28.615Z,36.10
2018-08-22T12:15:58.651Z,35.70
2018-08-22T12:18:27.926Z,35.80
2018-08-22T12:20:57.181Z,35.80
2018-08-22T12:23:26.449Z,36.10
2018-08-22T12:25:55.816Z,35.80
2018-08-22T12:28:25.439Z,36.10
2018-08-22T12:30:54.830Z,36.10
2018-08-22T12:33:24.058Z,35.60
2018-08-22T12:35:53.384Z,36.30
2018-08-22T12:38:23.096Z,36.50
2018-08-22T12:40:52.723Z,36.00
2018-08-22T12:43:22.116Z,36.10
2018-08-22T12:45:51.859Z,36.30
2018-08-22T12:48:21.112Z,35.70
2018-08-22T12:50:50.320Z,36.40
2018-08-22T12:53:19.771Z,36.10
2018-08-22T12:55:49.272Z,36.40
2018-08-22T12:58:18.432Z,36.40
2018-08-22T13:00:47.584Z,36.30
2018-08-22T13:03:17.093Z,36.60
2018-08-22T13:05:46.322Z,36.60
2018-08-22T13:08:16.410Z,36.60
2018-08-22T13:10:45.472Z,36.50
2018-08-22T13:13:14.869Z,36.40
2018-08-22T13:15:44.152Z,36.60
2018-08-22T13:18:13.450Z,36.50
2018-08-22T13:20:42.745Z,37.00
2018-08-22T13:23:12.031Z,36.60
2018-08-22T13:25:41.619Z,36.50
2018-08-22T13:28:11.419Z,36.50
2018-08-22T13:30:41.897Z,36.70
2018-08-22T13:33:11.201Z,36.80
2018-08-22T13:35:40.411Z,36.70
2018-08-22T13:38:09.771Z,36.70
2018-08-22T13:40:41.603Z,36.60
2018-08-22T13:43:11.035Z,37.20
2018-08-22T13:45:40.220Z,37.20
2018-08-22T13:48:09.493Z,37.30
2018-08-22T13:50:39.023Z,37.20
2018-08-22T13:53:08.625Z,37.10
2018-08-22T13:55:37.826Z,37.20
2018-08-22T13:58:08.452Z,37.00
2018-08-22T14:00:37.953Z,37.00
2018-08-22T14:03:07.538Z,37.20
2018-08-22T14:05:36.793Z,37.40
2018-08-22T14:08:05.945Z,37.50
2018-08-22T14:10:35.315Z,37.50
2018-08-22T14:13:04.628Z,38.30
2018-08-22T14:15:34.076Z,37.80
2018-08-22T14:18:03.446Z,37.80
2018-08-22T14:20:32.489Z,38.60
2018-08-22T14:23:01.566Z,38.00
2018-08-22T14:25:30.820Z,38.10
2018-08-22T14:28:00.676Z,38.10
2018-08-22T14:30:30.088Z,38.30
2018-08-22T14:32:59.582Z,38.50
2018-08-22T14:35:28.820Z,38.60
2018-08-22T14:37:58.130Z,38.50
2018-08-22T14:40:27.309Z,38.70
2018-08-22T14:42:56.429Z,38.90
2018-08-22T14:45:25.773Z,39.00
2018-08-22T14:47:54.949Z,39.10
2018-08-22T14:50:24.152Z,38.60
2018-08-22T14:52:53.416Z,39.10
2018-08-22T14:55:22.660Z,39.20
2018-08-22T14:57:51.964Z,39.10
2018-08-22T15:00:21.289Z,39.40
2018-08-22T15:02:50.705Z,39.50
2018-08-22T15:05:19.589Z,39.40
2018-08-22T15:07:49.400Z,39.50
2018-08-22T15:10:19.105Z,39.60
2018-08-22T15:12:49.342Z,39.80
2018-08-22T15:15:18.870Z,40.00
2018-08-22T15:17:48.130Z,39.80
2018-08-22T15:20:17.369Z,39.90
2018-08-22T15:22:46.549Z,39.90
2018-08-22T15:25:15.668Z,39.80
2018-08-22T15:27:45.270Z,39.90
2018-08-22T15:30:15.077Z,40.10
2018-08-22T15:32:44.238Z,40.20
2018-08-22T15:35:13.515Z,40.40
2018-08-22T15:37:42.923Z,40.30
2018-08-22T15:40:13.103Z,40.40
2018-08-22T15:42:42.388Z,40.80
2018-08-22T15:45:12.224Z,40.90
2018-08-22T15:47:41.706Z,40.80
2018-08-22T15:50:10.885Z,40.90
2018-08-22T15:52:40.325Z,40.90
2018-08-22T15:55:13.087Z,40.90
2018-08-22T15:57:59.488Z,41.20
2018-08-22T16:00:50.861Z,41.10
2018-08-22T16:03:20.474Z,41.10
2018-08-22T16:05:50.337Z,41.20
2018-08-22T16:08:22.070Z,41.30
2018-08-22T16:10:51.327Z,41.40
2018-08-22T16:13:25.785Z,41.60
2018-08-22T16:15:56.050Z,41.60
2018-08-22T16:18:25.566Z,41.50
2018-08-22T16:20:57.950Z,41.40
2018-08-22T16:23:30.116Z,41.70
2018-08-22T16:26:00.530Z,41.90
2018-08-22T16:28:49.860Z,41.90
2018-08-22T16:31:19.319Z,42.20
2018-08-22T16:33:48.625Z,42.00
2018-08-22T16:36:23.175Z,42.00
2018-08-22T16:38:52.375Z,42.00
2018-08-22T16:41:21.804Z,41.90
2018-08-22T16:43:51.033Z,42.20
2018-08-22T16:46:20.307Z,42.20
2018-08-22T16:48:53.221Z,42.30
2018-08-22T16:51:22.971Z,42.40
2018-08-22T16:53:59.825Z,42.40
2018-08-22T16:56:30.549Z,42.60
2018-08-22T16:59:05.008Z,42.70
2018-08-22T17:01:34.068Z,42.70
2018-08-22T17:04:03.275Z,42.70
2018-08-22T17:06:32.583Z,43.30
2018-08-22T17:09:01.738Z,43.00
2018-08-22T17:11:30.862Z,42.90
2018-08-22T17:14:00.590Z,43.10
2018-08-22T17:16:29.731Z,43.10
2018-08-22T17:18:58.967Z,43.00
2018-08-22T17:21:28.123Z,43.10
2018-08-22T17:23:57.363Z,43.30
2018-08-22T17:26:26.404Z,43.30
2018-08-22T17:28:57.154Z,43.30
2018-08-22T17:31:27.884Z,43.30
2018-08-22T17:33:58.510Z,43.50
2018-08-22T17:36:27.665Z,44.20
2018-08-22T17:38:58.113Z,43.90
2018-08-22T17:41:29.153Z,44.00
2018-08-22T17:44:08.009Z,44.00
2018-08-22T17:46:42.201Z,44.20
2018-08-22T17:49:11.836Z,44.10
2018-08-22T17:51:58.205Z,44.30
2018-08-22T17:54:27.966Z,44.50
2018-08-22T17:57:13.348Z,44.50
2018-08-22T17:59:43.803Z,44.80
2018-08-22T18:02:13.702Z,44.70
2018-08-22T18:04:56.258Z,44.90
2018-08-22T18:07:26.429Z,45.00
2018-08-22T18:09:56.848Z,45.10
2018-08-22T18:12:28.319Z,45.20
2018-08-22T18:15:00.232Z,45.40
2018-08-22T18:17:29.403Z,45.50
2018-08-22T18:19:58.836Z,45.70
2018-08-22T18:22:32.349Z,45.70
2018-08-22T18:25:01.857Z,45.80
2018-08-22T18:27:31.261Z,46.00
2018-08-22T18:30:00.499Z,46.10
2018-08-22T18:32:29.735Z,46.10
2018-08-22T18:35:10.927Z,46.20
2018-08-22T18:37:41.678Z,46.30
2018-08-22T18:40:18.045Z,46.40
2018-08-22T18:42:49.975Z,46.60
2018-08-22T18:45:20.153Z,46.70
2018-08-22T18:47:49.356Z,46.70
2018-08-22T18:50:19.037Z,47.30
2018-08-22T18:52:51.273Z,47.10
2018-08-22T18:55:26.264Z,47.20
2018-08-22T18:57:56.576Z,47.50
2018-08-22T19:00:25.996Z,47.40
2018-08-22T19:02:56.254Z,47.60
2018-08-22T19:05:30.388Z,47.80
2018-08-22T19:08:07.291Z,47.70
2018-08-22T19:10:37.490Z,48.00
2018-08-22T19:13:11.936Z,48.00
2018-08-22T19:15:42.431Z,48.20
2018-08-22T19:18:12.905Z,48.50
2018-08-22T19:20:42.528Z,50.40
2018-08-22T19:23:11.908Z,49.80
2018-08-22T19:25:42.006Z,49.50
2018-08-22T19:28:11.164Z,49.40
2018-08-22T19:30:40.657Z,49.30
2018-08-22T19:33:13.714Z,49.40
2018-08-22T19:35:43.415Z,49.40
2018-08-22T19:38:17.215Z,49.60
2018-08-22T19:40:46.358Z,49.80
2018-08-22T19:43:15.850Z,50.00
2018-08-22T19:45:45.369Z,50.10
2018-08-22T19:48:14.969Z,50.20
2018-08-22T19:50:44.176Z,50.20
2018-08-22T19:53:13.442Z,50.40
2018-08-22T19:55:42.972Z,50.50
2018-08-22T19:58:14.796Z,50.70
2018-08-22T20:00:44.237Z,50.90
2018-08-22T20:03:19.384Z,51.10
2018-08-22T20:05:54.347Z,51.10
2018-08-22T20:08:28.397Z,51.50
2018-08-22T20:10:59.299Z,52.10
2018-08-22T20:13:46.442Z,51.80
2018-08-22T20:16:16.724Z,52.00
2018-08-22T20:18:50.431Z,52.20
2018-08-22T20:21:25.070Z,52.20
2018-08-22T20:23:55.219Z,52.50
2018-08-22T20:26:25.185Z,52.60
2018-08-22T20:28:55.567Z,52.90
2018-08-22T20:31:24.746Z,52.90
2018-08-22T20:34:14.571Z,53.10
2018-08-22T20:36:46.492Z,53.20
2018-08-22T20:39:16.286Z,53.30
2018-08-22T20:41:45.883Z,53.70
2018-08-22T20:44:21.247Z,53.80
2018-08-22T20:46:50.790Z,53.90
2018-08-22T20:49:20.912Z,54.00
2018-08-22T20:51:50.335Z,54.20
2018-08-22T20:54:23.656Z,54.30
2018-08-22T20:56:58.241Z,54.50
2018-08-22T20:59:27.567Z,54.70
2018-08-22T21:02:01.200Z,54.70
2018-08-22T21:04:30.614Z,55.00
2018-08-22T21:09:35.429Z,55.40
2018-08-22T21:12:05.306Z,55.50
2018-08-22T21:14:34.364Z,55.60
2018-08-22T21:17:04.033Z,55.80
2018-08-22T21:19:33.143Z,56.00
2018-08-22T21:22:02.449Z,56.20
2018-08-22T21:24:31.944Z,56.40
2018-08-22T21:27:01.312Z,56.50
2018-08-22T21:29:31.038Z,56.80
2018-08-22T21:32:02.054Z,56.80
2018-08-22T21:34:31.367Z,56.90
2018-08-22T21:37:01.169Z,57.20
2018-08-22T21:39:30.515Z,57.50
2018-08-22T21:42:00.088Z,57.30
2018-08-22T21:44:29.324Z,57.60
2018-08-22T21:47:04.015Z,57.80
2018-08-22T21:49:33.336Z,58.50
2018-08-22T21:52:02.818Z,58.10
2018-08-22T21:54:32.411Z,58.00
2018-08-22T21:57:01.642Z,58.20
2018-08-22T22:02:14.441Z,58.40
2018-08-22T22:04:45.077Z,59.00
2018-08-22T22:07:16.174Z,59.10
2018-08-22T22:09:47.325Z,58.80
2018-08-22T22:12:22.326Z,59.00
2018-08-22T22:14:52.669Z,59.20
2018-08-22T22:17:23.391Z,59.30
2018-08-22T22:19:54.564Z,59.60
2018-08-22T22:22:26.397Z,59.70
2018-08-22T22:25:03.482Z,59.80
2018-08-22T22:27:34.818Z,60.00
2018-08-22T22:30:07.428Z,60.20
2018-08-22T22:32:37.454Z,60.30
2018-08-22T22:35:06.822Z,60.50
2018-08-22T22:37:36.138Z,60.40
2018-08-22T22:40:07.419Z,60.80
2018-08-22T22:42:38.712Z,60.80
2018-08-22T22:45:10.417Z,61.20
2018-08-22T22:47:42.313Z,61.10
2018-08-22T22:50:13.978Z,60.80
2018-08-22T22:52:46.551Z,61.40
2018-08-22T22:55:16.712Z,61.80
2018-08-22T22:57:47.602Z,61.80
2018-08-22T23:00:20.279Z,62.00
2018-08-22T23:02:57.129Z,62.10
2018-08-22T23:05:30.646Z,62.30
2018-08-22T23:08:04.057Z,62.40
2018-08-22T23:10:34.474Z,62.60
2018-08-22T23:13:06.518Z,62.80
2018-08-22T23:15:39.253Z,62.70
2018-08-22T23:18:09.802Z,63.60
2018-08-22T23:20:44.187Z,63.00
2018-08-22T23:23:38.943Z,63.00
2018-08-22T23:26:20.735Z,63.10
2018-08-22T23:28:50.676Z,63.10
2018-08-22T23:31:21.626Z,63.40
2018-08-22T23:33:52.027Z,63.30
2018-08-22T23:36:22.402Z,63.60
2018-08-22T23:38:51.865Z,64.50
2018-08-22T23:41:22.192Z,63.60
2018-08-22T23:43:53.532Z,63.80
2018-08-22T23:46:23.654Z,64.00
2018-08-22T23:48:57.425Z,64.10
2018-08-22T23:51:27.805Z,64.30
2018-08-22T23:54:03.780Z,64.20
2018-08-22T23:56:33.164Z,64.40
2018-08-22T23:59:02.633Z,64.60
